Flight Track Log - Related Links

Times and Time Zones

All times are in EDT time to prevent confusion due to time zone crossing. See the UAL5900 flight status page for this flight to view local times or setup timezone preferences in your user account.

Time Position Orientation Groundspeed Altitude Reporting Facility
EDT Latitude Longitude Course Direction KTS MPH feet Rate Location/Type
Fri 06:57:32 PM 41.9167 -87.9000 180° South 165 190 3,000  Level Chicago TRACON
Fri 06:58:32 PM 41.8667 -87.9000 180° South 216 249 4,400 1,412 Climbing Chicago TRACON
Fri 06:59:31 PM 41.8122 -87.8925 174° South 219 252 5,800 2,132 Climbing Chicago Center
Fri 07:00:33 PM 41.7306 -87.8889 178° South 244 281 8,700 2,371 Climbing Chicago Center
Fri 07:01:35 PM 41.6581 -87.8814 176° South 259 298 10,700 1,742 Climbing Chicago Center
Fri 07:02:37 PM 41.5797 -87.8689 173° South 282 325 12,300 1,065 Climbing Chicago Center
Fri 07:03:39 PM 41.4894 -87.8542 173° South 321 369 12,900 774 Climbing Chicago Center
Fri 07:04:41 PM 41.3881 -87.8389 174° South 358 412 13,900 1,113 Climbing Chicago Center
Fri 07:05:43 PM 41.2836 -87.8225 173° South 371 427 15,200 1,210 Climbing Chicago Center
Fri 07:06:45 PM 41.1794 -87.8069 174° South 375 432 16,400 1,306 Climbing Chicago Center
Fri 07:07:47 PM 41.0525 -87.7875 173° South 381 438 17,900 1,161 Climbing Chicago Center
Fri 07:08:49 PM 40.9447 -87.7697 173° South 390 449 18,800 1,016 Climbing Chicago Center
Fri 07:09:51 PM 40.8364 -87.7539 174° South 393 452 20,000 1,210 Climbing Chicago Center
Fri 07:10:53 PM 40.7261 -87.7364 173° South 400 460 21,300 1,210 Climbing Chicago Center
Fri 07:11:55 PM 40.6142 -87.7208 174° South 405 466 22,500 1,161 Climbing Chicago Center
Fri 07:12:57 PM 40.5028 -87.7031 173° South 405 466 23,700 1,306 Climbing Chicago Center
Fri 07:13:59 PM 40.3667 -87.6833 174° South 410 472 25,200 1,355 Climbing Chicago Center
Fri 07:14:30 PM 40.3131 -87.6758 174° South 409 471 25,800 1,097 Climbing Indianapolis Center
Fri 07:15:32 PM 40.1994 -87.6611 174° South 407 468 26,900 581 Climbing Indianapolis Center
Fri 07:16:34 PM 40.0847 -87.6431 173° South 411 473 27,000 48 Climbing Indianapolis Center
Fri 07:17:36 PM 39.9422 -87.6217 173° South 433 498 27,000  Level Indianapolis Center
Fri 07:18:37 PM 39.8150 -87.6036 174° South 450 518 27,000  Level Indianapolis Center
Fri 07:19:39 PM 39.6867 -87.5850 174° South 460 529 27,000  Level Indianapolis Center
Fri 07:20:41 PM 39.5567 -87.5656 173° South 467 537 27,000  Level Indianapolis Center
Fri 07:21:43 PM 39.4258 -87.5478 174° South 470 541 27,000  Level Indianapolis Center
Fri 07:22:44 PM 39.2942 -87.5272 173° South 473 544 27,000  Level Indianapolis Center
Fri 07:23:46 PM 39.1611 -87.5089 174° South 477 549 27,000  Level Indianapolis Center
Fri 07:24:48 PM 39.0128 -87.4872 174° South 471 542 27,000  Level Indianapolis Center
Fri 07:25:49 PM 38.8833 -87.4686 174° South 468 539 27,000 -439 Level Indianapolis Center
Fri 07:26:51 PM 38.7569 -87.4506 174° South 458 527 26,100 -968 Descending Indianapolis Center
Fri 07:27:53 PM 38.6406 -87.4339 174° South 424 488 25,000 -1,024 Descending Indianapolis Center
Fri 07:28:54 PM 38.5258 -87.4183 174° South 416 479 24,000 -488 Descending Indianapolis Center
Fri 07:29:56 PM 38.4139 -87.4025 174° South 410 472 24,000  Level Indianapolis Center
Fri 07:30:58 PM 38.2769 -87.3839 174° South 418 481 24,000  Level Indianapolis Center
Fri 07:31:59 PM 38.1572 -87.3675 174° South 433 498 24,000 -195 Level Indianapolis Center
Fri 07:33:01 PM 38.0356 -87.3494 173° South 441 507 23,600 -484 Descending Indianapolis Center
Fri 07:34:03 PM 37.9161 -87.3325 174° South 433 498 23,000 -293 Descending Indianapolis Center
Fri 07:35:04 PM 37.7964 -87.3164 174° South 432 497 23,000  Level Indianapolis Center
Fri 07:36:06 PM 37.6567 -87.2956 173° South 437 503 23,000  Level Indianapolis Center
Fri 07:37:07 PM 37.5392 -87.2803 174° South 423 487 23,000  Level Indianapolis Center
Fri 07:37:59 PM 37.4436 -87.2719 176° South 412 474 23,000  Level Memphis Center
Fri 07:38:21 PM 37.3994 -87.2633 171° South 420 483 23,000  Level Memphis Center
Fri 07:38:47 PM 37.3536 -87.2572 174° South 407 468 23,000 -900 Level Memphis Center
Fri 07:39:21 PM 37.2864 -87.2364 166° South 414 476 22,100 -1,770 Descending Memphis Center
Fri 07:39:48 PM 37.2339 -87.2228 168° South 431 496 21,200 -2,000 Descending Memphis Center
Fri 07:40:21 PM 37.1708 -87.2019 165° South 419 482 20,100 -1,900 Descending Memphis Center
Fri 07:40:48 PM 37.1206 -87.1908 170° South 429 494 19,300 -2,000 Descending Memphis Center
Fri 07:41:21 PM 37.0556 -87.1700 166° South 419 482 18,100 -1,672 Descending Memphis Center
Fri 07:41:49 PM 37.0031 -87.1542 166° South 419 482 17,600 -1,600 Descending Memphis Center
Fri 07:42:21 PM 36.9419 -87.1356 166° South 419 482 16,500 -2,000 Descending Memphis Center
Fri 07:42:49 PM 36.8958 -87.1247 169° South 414 476 15,600 -2,000 Descending Memphis Center
Fri 07:43:21 PM 36.8328 -87.1011 163° South 409 471 14,500 -1,630 Descending Memphis Center
Fri 07:44:21 PM 36.7378 -87.0508 157° South 390 449 13,100 -1,550 Descending Memphis Center
Fri 07:45:21 PM 36.6508 -86.9975 154° Southeast 357 411 11,400 -1,500 Descending Memphis Center
Fri 07:46:21 PM 36.5789 -86.9539 154° Southeast 338 389 10,100 -1,400 Descending Memphis Center
Fri 07:47:21 PM 36.5067 -86.9078 153° Southeast 313 360 8,600 -1,550 Descending Memphis Center
Fri 07:48:21 PM 36.4367 -86.8669 155° Southeast 286 329 7,000 -1,300 Descending Memphis Center
Fri 07:49:21 PM 36.3731 -86.8258 153° Southeast 268 308 6,000 -500 Descending Memphis Center
Fri 07:50:21 PM 36.2989 -86.7828 155° Southeast 263 303 6,000 -100 Level Memphis Center
Fri 07:51:21 PM 36.2311 -86.7522 160° South 263 303 5,800 -500 Descending Memphis Center
Fri 07:52:21 PM 36.1714 -86.7728 196° South 222 255 5,000 -550 Descending Memphis Center
Fri 07:53:21 PM 36.1219 -86.7931 198° South 222 255 4,700 -500 Descending Memphis Center
Fri 07:54:21 PM 36.0664 -86.8211 202° Southwest 222 255 4,000 -850 Descending Memphis Center
Fri 07:55:21 PM 36.0342 -86.7867 139° Southeast 174 200 3,000 -900 Descending Memphis Center
Fri 07:56:21 PM 36.0469 -86.7269 75° East 134 154 2,200 -750 Descending Memphis Center
Fri 07:57:21 PM 36.0817 -86.7025 30° Northeast 140 161 1,500 -700 Descending Memphis Center
Fri 07:58:21 PM 36.1125 -86.6856 24° Northeast 128 147 800 3,750 Descending Memphis Center
Fri 07:59:21 PM 36.1450 -86.6583 34° Northeast 128 147 9,000 8,200 Climbing Memphis Center
Fri 08:01:00 PM 36.1167 -86.6667 219° Southwest  Level FlightAware Approximate
Fri 08:08:00 PM 36.1245 -86.6782 219° Southwest  Level Estimated
Fri 08:09:00 PM 36.1245 -86.6782 219° Southwest  Level Estimated
Fri 08:10:00 PM 36.1245 -86.6782 219° Southwest  Level Estimated
Fri 08:11:00 PM 36.1245 -86.6782 219° Southwest  Level Estimated
Fri 08:12:00 PM 36.1245 -86.6782 219° Southwest  Level Estimated
Fri 08:13:00 PM 36.1245 -86.6782 219° Southwest  Level Estimated

Login

Don't have an account? Register now (free) for customized features, flight alerts, and more!